Tenants Harbor, ME (04860)

4:34 AM EDT on August 30, 2016 (GMT -0400)
Saint George River GRN13 | | Change Station

Elev 49 ft 44.04 °N, 69.19 °W | Updated 369 days ago

Partly Cloudy
Partly Cloudy
60 °F
Feels Like 60 °F
N
2
Wind Variable Wind from WNW
Gusts mph

Today
High -- | Low -- °F
--% Chance of Precip.
Yesterday
High -- | Low -- °F
Precip. -- in
Pressure 30.11 in
Visibility 10.0 miles
Clouds Clear
Dew Point 55 °F
Humidity 85%
Rainfall in
Snow Depth Not available.
5:58 AM 7:15 PM
Waning Crescent, 4% visible
METAR KRKD 300756Z AUTO 29006KT 10SM CLR 14/12 A3011 RMK AO2 SLP196 T01440122
Pressure 30.11 in
Visibility 10.0 miles
Clouds Clear
Dew Point 55 °F
Humidity 85%
Rainfall in
Snow Depth Not available.
5:58 AM 7:15 PM
Waning Crescent, 4% visible
METAR KRKD 300756Z AUTO 29006KT 10SM CLR 14/12 A3011 RMK AO2 SLP196 T01440122

10-Day Weather Forecast

Almanac

Astronomy

Aug. 30, 2016 Rise Set
Actual Time
Civil Twilight
Nautical Twilight
Astronomical Twilight
Moon
Length of Visible Light
Length of Day
Tomorrow will be .
, % of the Moon is Illuminated

Today's Extremes

State Highs State Lows

Community

WunderPhotos

Upload Photos

1,935,795 photos uploaded!

WunderBlog® & News

Nearby

Air Quality

  Air Quality AQ Index Pollutant
Not available.

Snow Depth

Station Depth Elevation

Earthquake Activity

City Distance Mag. Time & Date
Minimum magnitude displayed is 2.5.

Coastal Water Temperatures

Place Temperature

Stations

Nearby Weather Stations

Station Location Temp. Windchill Dew Point Humidity Wind Precip. Elev Updated Type
                   

Watches & Warnings

There are currently no watches in effect.